createdAt,value
2024-03-06T00:00:13.570Z,9.00
2024-03-06T00:02:53.024Z,9.00
2024-03-06T00:04:47.384Z,9.30
2024-03-06T00:06:43.346Z,9.10
2024-03-06T00:09:00.028Z,9.60
2024-03-06T00:10:54.610Z,9.40
2024-03-06T00:12:45.423Z,9.10
2024-03-06T00:14:41.368Z,9.20
2024-03-06T00:16:34.922Z,9.00
2024-03-06T00:18:31.726Z,9.20
2024-03-06T00:20:29.199Z,9.50
2024-03-06T00:22:34.283Z,9.60
2024-03-06T00:24:24.693Z,9.80
2024-03-06T00:26:18.127Z,9.70
2024-03-06T00:28:22.768Z,10.10
2024-03-06T00:30:15.673Z,9.30
2024-03-06T00:32:12.301Z,9.80
2024-03-06T00:34:10.484Z,9.50
2024-03-06T00:36:12.477Z,9.40
2024-03-06T00:38:12.589Z,9.20
2024-03-06T00:40:06.799Z,10.10
2024-03-06T00:42:02.244Z,9.70
2024-03-06T00:43:55.546Z,9.80
2024-03-06T00:45:53.008Z,9.90
2024-03-06T00:47:47.167Z,9.90
2024-03-06T00:49:44.251Z,10.00
2024-03-06T00:51:41.198Z,10.00
2024-03-06T00:53:41.085Z,10.10
2024-03-06T00:55:42.984Z,10.10
2024-03-06T00:57:39.571Z,10.10
2024-03-06T00:59:29.957Z,10.10
2024-03-06T01:01:23.164Z,10.10
2024-03-06T01:03:22.854Z,10.40
2024-03-06T01:05:56.506Z,10.00
2024-03-06T01:07:49.983Z,10.20
2024-03-06T01:09:43.855Z,10.20
2024-03-06T01:11:39.165Z,10.10
2024-03-06T01:13:31.930Z,10.50
2024-03-06T01:15:35.155Z,10.30
2024-03-06T01:17:37.244Z,10.40
2024-03-06T01:19:32.997Z,10.10
2024-03-06T01:21:26.328Z,9.80
2024-03-06T01:23:24.403Z,10.50
2024-03-06T01:25:20.813Z,10.20
2024-03-06T01:27:13.377Z,10.20
2024-03-06T01:29:02.385Z,9.80
2024-03-06T01:30:57.273Z,10.70
2024-03-06T01:32:46.126Z,10.80
2024-03-06T01:34:33.841Z,10.20
2024-03-06T01:36:21.370Z,9.90
2024-03-06T01:38:10.655Z,10.00
2024-03-06T01:40:02.361Z,10.50
2024-03-06T01:41:54.726Z,10.20
2024-03-06T01:43:55.503Z,10.90
2024-03-06T01:45:44.772Z,10.10
2024-03-06T01:47:39.786Z,10.50
2024-03-06T01:51:07.768Z,11.00
2024-03-06T01:52:53.440Z,10.80
2024-03-06T01:54:44.291Z,11.10
2024-03-06T01:56:38.379Z,10.60
2024-03-06T01:58:35.153Z,10.40
2024-03-06T02:00:22.133Z,10.30
2024-03-06T02:02:12.745Z,10.80
2024-03-06T02:04:06.348Z,10.30
2024-03-06T02:06:04.346Z,10.60
2024-03-06T02:08:03.887Z,10.30
2024-03-06T02:10:02.367Z,10.40
2024-03-06T02:11:57.307Z,10.20
2024-03-06T02:14:00.317Z,10.10
2024-03-06T02:15:50.485Z,10.30
2024-03-06T02:17:48.152Z,10.30
2024-03-06T02:19:45.856Z,10.50
2024-03-06T02:21:39.617Z,10.10
2024-03-06T02:23:28.962Z,10.10
2024-03-06T02:25:17.744Z,10.20
2024-03-06T02:27:12.958Z,9.90
2024-03-06T02:29:11.989Z,10.20
2024-03-06T02:31:01.123Z,9.50
2024-03-06T02:32:53.917Z,10.00
2024-03-06T02:34:39.614Z,9.70
2024-03-06T02:36:37.326Z,9.80
2024-03-06T02:38:37.173Z,10.00
2024-03-06T02:40:35.746Z,10.20
2024-03-06T02:42:28.690Z,9.90
2024-03-06T02:44:22.814Z,10.00
2024-03-06T02:47:44.734Z,9.70
2024-03-06T02:49:34.544Z,9.80
2024-03-06T02:51:31.778Z,9.60
2024-03-06T02:53:35.251Z,9.20
2024-03-06T02:55:30.378Z,9.50
2024-03-06T02:57:22.341Z,9.60
2024-03-06T03:01:49.877Z,9.30
2024-03-06T03:03:39.236Z,9.70
2024-03-06T03:05:29.004Z,9.10
2024-03-06T03:07:21.147Z,9.00
2024-03-06T03:09:16.472Z,8.90
2024-03-06T03:11:09.414Z,9.20
2024-03-06T03:13:00.784Z,9.60
2024-03-06T03:15:00.785Z,9.00
2024-03-06T03:17:06.813Z,9.70
2024-03-06T03:19:02.641Z,9.10
2024-03-06T03:20:51.825Z,8.80
2024-03-06T03:22:47.273Z,8.80
2024-03-06T03:24:42.294Z,8.70
2024-03-06T03:26:27.649Z,9.20
2024-03-06T03:28:14.787Z,8.80
2024-03-06T03:30:13.234Z,9.30
2024-03-06T03:31:58.100Z,8.60
2024-03-06T03:33:55.682Z,8.90
2024-03-06T03:35:46.770Z,8.70
2024-03-06T03:37:38.561Z,8.40
2024-03-06T03:39:40.943Z,8.90
2024-03-06T03:41:32.779Z,8.70
2024-03-06T03:43:25.208Z,8.60
2024-03-06T03:45:12.343Z,9.20
2024-03-06T03:47:05.339Z,8.60
2024-03-06T03:48:58.854Z,8.10
2024-03-06T03:50:48.192Z,8.40
2024-03-06T03:52:43.377Z,8.40
2024-03-06T03:54:47.316Z,8.40
2024-03-06T03:56:40.252Z,8.50
2024-03-06T03:58:34.429Z,8.50
2024-03-06T04:00:27.464Z,8.90
2024-03-06T04:02:19.381Z,8.40
2024-03-06T04:04:11.981Z,8.50
2024-03-06T04:06:00.260Z,8.40
2024-03-06T04:07:51.859Z,8.40
2024-03-06T04:09:53.835Z,8.50
2024-03-06T04:11:47.630Z,8.20
2024-03-06T04:13:43.140Z,7.80
2024-03-06T04:17:38.401Z,8.00
2024-03-06T04:19:31.305Z,8.70
2024-03-06T04:21:36.104Z,8.20
2024-03-06T04:23:37.069Z,8.30
2024-03-06T04:25:36.284Z,8.50
2024-03-06T04:27:22.099Z,7.70
2024-03-06T04:29:06.945Z,7.60
2024-03-06T04:30:55.878Z,8.20
2024-03-06T04:32:44.344Z,8.30
2024-03-06T04:34:39.421Z,8.10
2024-03-06T04:36:29.213Z,8.10
2024-03-06T04:38:22.248Z,8.20
2024-03-06T04:40:17.323Z,8.10
2024-03-06T04:42:22.688Z,8.00
2024-03-06T04:44:25.786Z,7.90
2024-03-06T04:46:23.079Z,7.90
2024-03-06T04:48:35.638Z,8.10
2024-03-06T04:50:26.418Z,7.80
2024-03-06T04:52:23.921Z,7.80
2024-03-06T04:54:23.671Z,7.90
2024-03-06T04:56:24.691Z,7.60
2024-03-06T04:58:20.880Z,8.20
2024-03-06T05:00:30.384Z,7.80
2024-03-06T05:59:10.984Z,6.70
2024-03-06T06:01:11.237Z,6.50
2024-03-06T06:04:15.227Z,6.80
2024-03-06T06:06:04.893Z,7.10
2024-03-06T06:07:53.415Z,6.60
2024-03-06T06:09:44.118Z,6.60
2024-03-06T06:11:28.962Z,6.60
2024-03-06T06:13:20.248Z,6.60
2024-03-06T06:15:09.994Z,6.70
2024-03-06T06:17:11.052Z,6.60
2024-03-06T06:19:18.516Z,6.30
2024-03-06T06:21:21.627Z,6.50
2024-03-06T06:23:16.142Z,6.40
2024-03-06T06:25:16.130Z,6.30
2024-03-06T06:28:34.471Z,6.90
2024-03-06T06:30:28.608Z,6.50
2024-03-06T06:32:32.833Z,6.30
2024-03-06T06:34:32.152Z,6.30
2024-03-06T06:36:29.612Z,6.50
2024-03-06T06:38:30.783Z,6.00
2024-03-06T06:40:30.166Z,6.30
2024-03-06T06:42:23.554Z,5.80
2024-03-06T06:44:18.766Z,5.90
2024-03-06T06:46:09.136Z,6.50
2024-03-06T06:48:03.539Z,6.30
2024-03-06T06:51:44.047Z,6.10
2024-03-06T06:53:39.339Z,5.70
2024-03-06T06:55:37.875Z,6.00
2024-03-06T06:57:35.443Z,6.20
2024-03-06T06:59:29.206Z,6.40
2024-03-06T07:01:20.953Z,5.90
2024-03-06T07:03:12.036Z,5.90
2024-03-06T07:05:22.847Z,6.00
2024-03-06T07:07:20.753Z,6.00
2024-03-06T07:09:23.989Z,5.80
2024-03-06T07:11:26.294Z,5.90
2024-03-06T07:13:19.177Z,6.00
2024-03-06T07:15:13.904Z,5.80
2024-03-06T07:17:08.888Z,5.70
2024-03-06T07:19:06.718Z,5.80
2024-03-06T07:21:09.798Z,5.70
2024-03-06T07:23:09.972Z,6.10
2024-03-06T07:24:59.352Z,5.70
2024-03-06T07:26:58.875Z,5.80
2024-03-06T07:28:55.715Z,5.90
2024-03-06T07:30:53.757Z,6.00
2024-03-06T07:32:49.245Z,5.70
2024-03-06T07:34:41.467Z,5.70
2024-03-06T07:36:37.467Z,6.00
2024-03-06T07:38:26.227Z,6.00
2024-03-06T07:40:17.794Z,5.90
2024-03-06T07:42:19.316Z,5.30
2024-03-06T07:44:09.652Z,5.70
2024-03-06T07:46:13.561Z,5.70
2024-03-06T07:48:09.085Z,5.90
2024-03-06T07:50:12.074Z,5.90
2024-03-06T07:52:17.204Z,5.70
2024-03-06T07:54:14.421Z,5.80
2024-03-06T07:56:15.926Z,5.90
2024-03-06T07:58:14.556Z,5.90
2024-03-06T08:00:19.402Z,6.10
2024-03-06T08:02:12.418Z,5.80
2024-03-06T08:04:02.709Z,6.10
2024-03-06T08:06:01.456Z,5.60
2024-03-06T08:07:53.918Z,5.80
2024-03-06T08:10:15.354Z,6.00
2024-03-06T08:12:04.547Z,5.80
2024-03-06T08:13:54.134Z,6.00
2024-03-06T08:15:40.949Z,6.00
2024-03-06T08:17:27.556Z,6.00
2024-03-06T08:19:12.561Z,5.70
2024-03-06T08:20:56.721Z,6.00
2024-03-06T08:22:48.324Z,6.00
2024-03-06T08:24:41.802Z,5.40
2024-03-06T08:26:35.316Z,6.00
2024-03-06T08:28:21.944Z,5.70
2024-03-06T08:30:16.742Z,5.70
2024-03-06T08:32:05.064Z,6.10
2024-03-06T08:33:55.509Z,6.00
2024-03-06T08:35:48.918Z,6.00
2024-03-06T08:37:36.544Z,5.80
2024-03-06T08:39:34.104Z,6.00
2024-03-06T08:41:26.662Z,5.50
2024-03-06T08:43:25.936Z,5.60
2024-03-06T08:45:34.203Z,5.80
2024-03-06T08:47:22.614Z,5.60
2024-03-06T08:49:19.963Z,5.40
2024-03-06T08:51:13.560Z,5.70
2024-03-06T08:53:01.731Z,5.50
2024-03-06T08:54:47.687Z,5.80
2024-03-06T08:57:25.917Z,5.60
2024-03-06T08:59:15.373Z,5.80
2024-03-06T09:01:00.270Z,5.70
2024-03-06T09:02:46.703Z,5.90
2024-03-06T09:04:36.482Z,5.50
2024-03-06T09:06:24.313Z,5.70
2024-03-06T09:08:12.954Z,5.60
2024-03-06T09:10:01.004Z,5.40
2024-03-06T09:11:49.917Z,5.80
2024-03-06T09:13:39.304Z,5.40
2024-03-06T09:15:26.652Z,5.30
2024-03-06T09:17:18.545Z,5.80
2024-03-06T09:19:04.993Z,5.70
2024-03-06T09:20:51.000Z,5.70
2024-03-06T09:22:42.184Z,5.70
2024-03-06T09:24:29.433Z,5.70
2024-03-06T09:26:21.754Z,5.40
2024-03-06T09:28:10.331Z,5.40
2024-03-06T09:29:57.402Z,5.70
2024-03-06T09:31:46.499Z,5.90
2024-03-06T09:33:31.791Z,5.40
2024-03-06T09:35:21.299Z,5.50
2024-03-06T09:37:18.339Z,5.70
2024-03-06T09:39:09.100Z,5.30
2024-03-06T09:40:53.362Z,5.70
2024-03-06T09:42:36.164Z,5.80
2024-03-06T09:44:21.487Z,5.70
2024-03-06T09:46:05.179Z,5.50
2024-03-06T09:47:48.605Z,5.30
2024-03-06T09:49:31.848Z,5.70
2024-03-06T09:51:14.831Z,5.70
2024-03-06T09:52:58.921Z,5.30
2024-03-06T09:54:42.778Z,5.30
2024-03-06T09:56:25.610Z,5.60
2024-03-06T09:58:09.671Z,5.30
2024-03-06T09:59:53.125Z,5.30
2024-03-06T10:01:47.894Z,5.50
2024-03-06T10:03:42.071Z,5.10
2024-03-06T10:05:40.636Z,5.40
2024-03-06T10:07:32.121Z,5.20
2024-03-06T10:09:17.267Z,5.20
2024-03-06T10:11:08.768Z,5.90
2024-03-06T10:12:55.350Z,5.10
2024-03-06T10:14:51.030Z,4.90
2024-03-06T10:16:57.204Z,5.50
2024-03-06T10:18:57.131Z,5.40
2024-03-06T10:20:47.665Z,6.90
2024-03-06T10:22:31.680Z,11.60
2024-03-06T10:24:14.727Z,11.30
2024-03-06T10:25:57.922Z,6.80
2024-03-06T10:27:45.886Z,6.80
2024-03-06T10:29:36.613Z,6.60
2024-03-06T10:31:33.078Z,7.50
2024-03-06T10:33:20.081Z,7.40
2024-03-06T10:35:02.888Z,7.50
2024-03-06T10:40:19.918Z,7.30
2024-03-06T10:42:09.628Z,7.60
2024-03-06T10:44:06.544Z,7.30
2024-03-06T10:46:10.169Z,7.60
2024-03-06T10:48:06.378Z,7.70
2024-03-06T10:50:00.624Z,7.90
2024-03-06T10:51:52.795Z,7.60
2024-03-06T10:53:46.177Z,7.60
2024-03-06T10:55:40.040Z,7.70
2024-03-06T10:57:23.852Z,7.50
2024-03-06T10:59:07.431Z,7.70
2024-03-06T11:00:51.218Z,7.70
2024-03-06T11:02:37.511Z,7.50
2024-03-06T11:04:20.786Z,7.70
2024-03-06T11:06:05.238Z,7.70
2024-03-06T11:07:52.041Z,8.00
2024-03-06T11:09:39.164Z,7.90
2024-03-06T11:11:28.501Z,7.90
2024-03-06T11:13:27.145Z,7.60
2024-03-06T11:15:18.921Z,7.60
2024-03-06T11:17:08.860Z,8.40
2024-03-06T11:19:10.537Z,7.70
2024-03-06T11:20:53.894Z,7.80
2024-03-06T11:23:13.092Z,8.10
2024-03-06T11:24:55.951Z,8.00
2024-03-06T11:26:40.688Z,7.90
2024-03-06T11:28:25.002Z,7.80
2024-03-06T11:30:14.985Z,8.60
2024-03-06T11:32:10.813Z,7.90
2024-03-06T11:33:58.932Z,7.80
2024-03-06T11:35:42.590Z,8.50
2024-03-06T11:37:30.097Z,8.20
2024-03-06T11:39:22.911Z,7.90
2024-03-06T11:41:15.383Z,8.30
2024-03-06T11:42:58.110Z,8.30
2024-03-06T11:46:43.112Z,7.90
2024-03-06T11:48:28.829Z,8.20
2024-03-06T11:50:15.879Z,7.90
2024-03-06T11:52:03.253Z,7.70
2024-03-06T11:53:48.782Z,8.20
2024-03-06T11:55:42.875Z,7.10
2024-03-06T11:57:30.839Z,7.40
2024-03-06T11:59:29.107Z,7.70
2024-03-06T12:01:20.118Z,7.60
2024-03-06T12:03:17.918Z,7.20
2024-03-06T12:05:19.057Z,7.20
2024-03-06T12:07:08.600Z,6.60
2024-03-06T12:08:51.307Z,6.70
2024-03-06T12:10:34.075Z,7.00
2024-03-06T12:12:17.041Z,6.80
2024-03-06T12:14:00.884Z,6.90
2024-03-06T12:15:46.774Z,6.90
2024-03-06T12:17:29.826Z,6.50
2024-03-06T12:19:12.646Z,6.50
2024-03-06T12:20:56.194Z,6.90
2024-03-06T12:22:58.688Z,6.20
2024-03-06T12:25:11.657Z,6.00
2024-03-06T12:27:08.330Z,6.20
2024-03-06T12:29:07.560Z,6.30
2024-03-06T12:31:31.675Z,6.10
2024-03-06T12:33:26.655Z,6.40
2024-03-06T12:35:31.096Z,6.10
2024-03-06T12:37:21.611Z,5.60
2024-03-06T12:41:30.976Z,5.70
2024-03-06T12:43:20.833Z,5.40
2024-03-06T12:45:15.696Z,5.90
2024-03-06T12:47:02.918Z,5.30
2024-03-06T12:48:47.472Z,5.50
2024-03-06T12:50:31.424Z,5.50
2024-03-06T12:52:14.478Z,5.10
2024-03-06T12:54:01.929Z,5.10
2024-03-06T12:55:56.440Z,4.90
2024-03-06T12:57:43.192Z,4.90
2024-03-06T12:59:27.756Z,5.40
2024-03-06T13:01:18.919Z,5.00
2024-03-06T13:03:05.035Z,4.70
2024-03-06T13:04:51.814Z,4.70
2024-03-06T13:06:35.347Z,4.80
2024-03-06T13:08:30.871Z,4.50
2024-03-06T13:10:18.215Z,4.70
2024-03-06T13:12:07.310Z,4.80
2024-03-06T13:13:56.319Z,4.60
2024-03-06T13:15:41.691Z,4.60
2024-03-06T13:17:32.336Z,4.90
2024-03-06T13:19:17.444Z,4.70
2024-03-06T13:21:04.353Z,4.30
2024-03-06T13:22:54.288Z,4.70
2024-03-06T13:24:50.164Z,4.30
2024-03-06T13:26:44.995Z,4.70
2024-03-06T13:28:32.657Z,4.40
2024-03-06T13:30:24.822Z,4.10
2024-03-06T13:32:12.397Z,4.20
2024-03-06T13:34:01.821Z,4.40
2024-03-06T13:35:53.531Z,4.40
2024-03-06T13:37:42.210Z,4.20
2024-03-06T13:39:39.174Z,4.10
2024-03-06T13:41:25.332Z,4.20
2024-03-06T13:43:16.284Z,4.40
2024-03-06T13:45:17.478Z,4.20
2024-03-06T13:47:05.500Z,3.70
2024-03-06T13:49:02.421Z,4.30
2024-03-06T13:50:52.329Z,4.10
2024-03-06T13:52:38.142Z,3.90
2024-03-06T13:54:26.768Z,4.00
2024-03-06T13:56:16.202Z,4.00
2024-03-06T13:58:08.592Z,3.90
2024-03-06T14:00:04.651Z,3.80
2024-03-06T14:01:50.792Z,3.80
2024-03-06T14:03:34.684Z,3.70
2024-03-06T14:05:27.319Z,4.30
2024-03-06T14:07:20.766Z,3.80
2024-03-06T14:09:09.767Z,4.10
2024-03-06T14:10:57.904Z,3.90
2024-03-06T14:12:47.966Z,4.00
2024-03-06T14:14:32.547Z,3.90
2024-03-06T14:16:15.700Z,4.20
2024-03-06T14:17:58.668Z,3.80
2024-03-06T14:19:41.493Z,3.70
2024-03-06T14:21:24.503Z,4.00
2024-03-06T14:23:09.047Z,4.10
2024-03-06T14:24:56.335Z,4.00
2024-03-06T14:26:44.068Z,4.00
2024-03-06T14:28:38.761Z,3.90
2024-03-06T14:30:28.867Z,4.00
2024-03-06T14:33:31.201Z,4.00
2024-03-06T14:35:28.216Z,4.10
2024-03-06T14:37:23.059Z,4.00
2024-03-06T14:39:18.226Z,4.10
2024-03-06T14:41:10.883Z,4.10
2024-03-06T14:42:58.969Z,4.20
2024-03-06T14:44:47.434Z,4.00
2024-03-06T14:46:32.040Z,4.10
2024-03-06T14:48:15.828Z,3.80
2024-03-06T14:50:09.305Z,4.00
2024-03-06T14:51:56.712Z,4.00
2024-03-06T14:53:54.053Z,4.10
2024-03-06T14:55:44.011Z,4.00
2024-03-06T14:57:36.338Z,3.80
2024-03-06T14:59:28.143Z,3.70
2024-03-06T15:01:14.330Z,3.90
2024-03-06T15:03:05.390Z,3.90
2024-03-06T15:04:58.875Z,4.20
2024-03-06T15:06:47.484Z,3.80
2024-03-06T15:08:33.213Z,4.00
2024-03-06T15:10:19.000Z,3.90
2024-03-06T15:12:05.398Z,4.00
2024-03-06T15:13:51.784Z,4.10
2024-03-06T15:15:37.647Z,3.70
2024-03-06T15:17:24.083Z,3.70
2024-03-06T15:19:09.773Z,3.90
2024-03-06T15:20:55.451Z,3.80
2024-03-06T15:22:47.244Z,3.70
2024-03-06T15:24:50.239Z,3.90
2024-03-06T15:28:17.342Z,4.00
2024-03-06T15:30:05.906Z,4.00
2024-03-06T15:31:51.116Z,3.70
2024-03-06T15:33:41.381Z,4.10
2024-03-06T15:35:39.961Z,3.70
2024-03-06T15:37:27.413Z,3.90
2024-03-06T15:39:14.271Z,3.80
2024-03-06T15:41:03.336Z,3.80
2024-03-06T15:42:51.319Z,3.90
2024-03-06T15:44:43.358Z,4.00
2024-03-06T15:46:34.723Z,4.00
2024-03-06T15:48:23.471Z,4.30
2024-03-06T15:50:17.886Z,4.20
2024-03-06T15:52:08.864Z,4.30
2024-03-06T15:53:58.118Z,4.70
2024-03-06T15:55:53.045Z,4.50
2024-03-06T15:57:43.351Z,4.20
2024-03-06T15:59:33.406Z,4.40
2024-03-06T16:01:30.852Z,4.40
2024-03-06T16:03:20.285Z,4.60
2024-03-06T16:05:20.091Z,4.70
2024-03-06T16:07:12.165Z,4.30
2024-03-06T16:09:08.781Z,4.40
2024-03-06T16:11:05.426Z,4.40
2024-03-06T16:12:57.912Z,4.40
2024-03-06T16:14:56.916Z,4.30
2024-03-06T16:16:58.192Z,4.30
2024-03-06T16:19:02.941Z,4.10
2024-03-06T16:20:45.992Z,4.40
2024-03-06T16:22:33.768Z,5.20
2024-03-06T16:24:24.442Z,4.70
2024-03-06T16:26:20.818Z,4.40
2024-03-06T16:28:17.454Z,4.40
2024-03-06T16:30:12.575Z,4.30
2024-03-06T16:32:00.894Z,4.30
2024-03-06T16:33:48.648Z,4.00
2024-03-06T16:35:53.600Z,4.00
2024-03-06T16:37:49.370Z,4.70
2024-03-06T16:39:35.879Z,4.40
2024-03-06T16:41:23.462Z,4.30
2024-03-06T16:43:13.199Z,4.50
2024-03-06T16:45:05.729Z,4.40
2024-03-06T16:46:54.303Z,4.20
2024-03-06T16:48:52.854Z,4.30
2024-03-06T16:50:47.935Z,4.60
2024-03-06T16:52:40.332Z,4.40
2024-03-06T16:54:25.531Z,4.30
2024-03-06T16:56:20.044Z,4.50
2024-03-06T16:58:17.444Z,4.60
2024-03-06T17:00:05.434Z,4.50
2024-03-06T17:01:53.527Z,4.50
2024-03-06T17:03:38.034Z,4.50
2024-03-06T17:05:36.370Z,4.50
2024-03-06T17:07:34.619Z,4.60
2024-03-06T17:09:40.885Z,4.60
2024-03-06T17:11:36.297Z,4.70
2024-03-06T17:13:28.884Z,4.80
2024-03-06T17:15:17.450Z,4.70
2024-03-06T17:17:05.133Z,5.10
2024-03-06T17:18:58.197Z,5.30
2024-03-06T17:20:50.001Z,5.10
2024-03-06T17:22:39.611Z,4.90
2024-03-06T17:24:26.175Z,4.80
2024-03-06T17:26:15.537Z,4.70
2024-03-06T17:28:09.251Z,5.10
2024-03-06T17:30:05.418Z,4.70
2024-03-06T17:32:02.071Z,5.30
2024-03-06T17:34:03.675Z,5.30
2024-03-06T17:36:03.530Z,5.20
2024-03-06T17:37:58.861Z,5.00
2024-03-06T17:39:50.706Z,5.00
2024-03-06T17:41:41.834Z,5.00
2024-03-06T17:43:36.684Z,5.20
2024-03-06T17:45:33.429Z,5.50
2024-03-06T17:47:27.637Z,5.30
2024-03-06T17:49:22.939Z,5.10
2024-03-06T17:52:24.654Z,5.30
2024-03-06T17:54:20.698Z,4.70
2024-03-06T17:56:25.491Z,5.00
2024-03-06T17:58:18.728Z,5.10
2024-03-06T18:00:19.848Z,5.20
2024-03-06T18:02:18.444Z,4.90
2024-03-06T18:04:14.690Z,5.00
2024-03-06T18:06:08.189Z,5.10
2024-03-06T18:07:58.097Z,5.30
2024-03-06T18:09:55.593Z,5.50
2024-03-06T18:11:45.939Z,4.90
2024-03-06T18:13:33.081Z,5.50
2024-03-06T18:15:31.273Z,5.10
2024-03-06T18:17:25.779Z,5.30
2024-03-06T18:19:28.538Z,5.10
2024-03-06T18:21:23.053Z,5.60
2024-03-06T18:23:18.214Z,5.30
2024-03-06T18:25:16.017Z,5.40
2024-03-06T18:27:07.760Z,5.40
2024-03-06T18:28:56.189Z,5.20
2024-03-06T18:30:53.306Z,5.80
2024-03-06T18:32:56.223Z,5.80
2024-03-06T18:34:57.023Z,5.30
2024-03-06T18:38:57.259Z,5.40
2024-03-06T18:40:44.756Z,5.60
2024-03-06T18:42:38.488Z,5.60
2024-03-06T18:44:32.532Z,5.40
2024-03-06T18:46:24.213Z,5.90
2024-03-06T18:48:26.970Z,5.70
2024-03-06T18:50:28.160Z,5.40
2024-03-06T18:52:24.605Z,5.70
2024-03-06T18:54:21.375Z,5.80
2024-03-06T18:56:18.728Z,5.30
2024-03-06T18:58:29.693Z,5.60
2024-03-06T19:01:51.045Z,5.80
2024-03-06T19:03:46.363Z,5.60
2024-03-06T19:05:41.977Z,5.90
2024-03-06T19:07:40.903Z,6.00
2024-03-06T19:09:33.166Z,5.60
2024-03-06T19:11:27.542Z,5.80
2024-03-06T19:13:24.188Z,6.00
2024-03-06T19:15:26.376Z,5.70
2024-03-06T19:17:20.341Z,5.80
2024-03-06T19:19:19.699Z,5.90
2024-03-06T19:21:16.986Z,5.70
2024-03-06T19:23:10.478Z,5.70
2024-03-06T19:25:02.586Z,5.90
2024-03-06T19:26:52.880Z,5.80
2024-03-06T19:28:42.894Z,5.70
2024-03-06T19:30:34.665Z,5.50
2024-03-06T19:32:43.529Z,5.90
2024-03-06T19:34:49.739Z,5.80
2024-03-06T19:36:42.375Z,6.00
2024-03-06T19:38:39.497Z,5.70
2024-03-06T19:40:32.326Z,5.90
2024-03-06T19:42:39.060Z,6.20
2024-03-06T19:44:30.545Z,5.90
2024-03-06T19:48:03.855Z,5.80
2024-03-06T19:50:08.959Z,6.00
2024-03-06T19:52:16.343Z,6.10
2024-03-06T19:54:12.995Z,5.80
2024-03-06T19:56:06.396Z,5.40
2024-03-06T19:58:10.338Z,5.70
2024-03-06T20:00:18.474Z,6.10
2024-03-06T20:02:12.658Z,6.00
2024-03-06T20:04:09.712Z,6.00
2024-03-06T20:06:06.797Z,5.70
2024-03-06T20:08:01.547Z,5.90
2024-03-06T20:10:02.777Z,6.20
2024-03-06T20:12:05.863Z,6.00
2024-03-06T20:13:59.962Z,5.90
2024-03-06T20:16:06.299Z,6.30
2024-03-06T20:18:08.129Z,5.90
2024-03-06T20:20:17.452Z,6.00
2024-03-06T20:22:26.259Z,6.00
2024-03-06T20:24:27.223Z,6.40
2024-03-06T20:26:15.238Z,6.00
2024-03-06T20:28:00.857Z,6.10
2024-03-06T20:29:58.679Z,6.10
2024-03-06T20:31:57.939Z,6.50
2024-03-06T20:33:53.811Z,5.80
2024-03-06T20:35:51.254Z,6.30
2024-03-06T20:37:59.799Z,6.40
2024-03-06T20:39:51.396Z,6.10
2024-03-06T20:41:45.761Z,6.00
2024-03-06T20:44:20.532Z,6.70
2024-03-06T20:46:25.959Z,6.40
2024-03-06T20:48:18.996Z,6.60
2024-03-06T20:50:18.842Z,6.30
2024-03-06T20:52:19.983Z,6.20
2024-03-06T20:56:29.363Z,6.10
2024-03-06T20:58:30.112Z,6.30
2024-03-06T21:00:23.988Z,6.30
2024-03-06T21:02:20.470Z,5.90
2024-03-06T21:04:18.387Z,6.40
2024-03-06T21:06:19.290Z,6.20
2024-03-06T21:08:20.879Z,5.80
2024-03-06T21:10:19.758Z,5.80
2024-03-06T21:12:19.927Z,6.60
2024-03-06T21:14:14.230Z,5.80
2024-03-06T21:16:05.912Z,5.70
2024-03-06T21:18:00.662Z,5.90
2024-03-06T21:19:47.796Z,6.20
2024-03-06T21:21:44.089Z,6.30
2024-03-06T21:23:32.993Z,5.40
2024-03-06T21:25:22.305Z,6.00
2024-03-06T21:27:23.204Z,5.80
2024-03-06T21:29:14.421Z,5.70
2024-03-06T21:31:16.299Z,6.00
2024-03-06T21:33:25.602Z,5.50
2024-03-06T21:35:27.916Z,5.70
2024-03-06T21:37:17.784Z,5.60
2024-03-06T21:39:11.969Z,5.70
2024-03-06T21:40:59.464Z,5.50
2024-03-06T21:42:47.114Z,5.50
2024-03-06T21:44:43.659Z,5.80
2024-03-06T21:46:37.416Z,5.40
2024-03-06T21:48:36.375Z,5.60
2024-03-06T21:50:29.823Z,5.60
2024-03-06T21:52:28.600Z,5.30
2024-03-06T21:54:35.309Z,5.50
2024-03-06T21:56:24.626Z,5.40
2024-03-06T21:58:18.353Z,5.50
2024-03-06T22:00:32.930Z,5.40
2024-03-06T22:02:28.324Z,5.20
2024-03-06T22:10:24.357Z,5.40
2024-03-06T22:12:14.201Z,5.50
2024-03-06T22:14:04.441Z,5.60
2024-03-06T22:15:57.909Z,5.50
2024-03-06T22:17:52.155Z,5.30
2024-03-06T22:19:42.126Z,5.70
2024-03-06T22:21:40.220Z,5.20
2024-03-06T22:23:47.257Z,5.60
2024-03-06T22:25:39.879Z,5.30
2024-03-06T22:27:31.488Z,5.30
2024-03-06T22:29:28.773Z,5.20
2024-03-06T22:31:15.296Z,5.30
2024-03-06T22:33:10.582Z,5.40
2024-03-06T22:35:03.330Z,5.40
2024-03-06T22:36:51.459Z,5.30
2024-03-06T22:38:43.203Z,5.50
2024-03-06T22:40:30.787Z,5.40
2024-03-06T22:42:22.445Z,5.50
2024-03-06T22:44:09.481Z,5.30
2024-03-06T22:46:05.904Z,5.30
2024-03-06T22:48:01.583Z,5.70
2024-03-06T22:49:58.672Z,5.30
2024-03-06T22:52:11.303Z,5.40
2024-03-06T22:54:05.164Z,5.70
2024-03-06T22:56:05.165Z,5.20
2024-03-06T22:58:03.454Z,5.20
2024-03-06T22:59:58.173Z,5.10
2024-03-06T23:01:52.887Z,5.30
2024-03-06T23:03:47.712Z,5.20
2024-03-06T23:05:43.964Z,5.20
2024-03-06T23:07:36.679Z,5.60
2024-03-06T23:09:28.796Z,5.20
2024-03-06T23:11:37.255Z,5.20
2024-03-06T23:13:35.478Z,5.60
2024-03-06T23:15:31.871Z,5.40
2024-03-06T23:18:38.650Z,5.10
2024-03-06T23:20:28.663Z,5.20
2024-03-06T23:22:21.532Z,5.60
2024-03-06T23:24:14.195Z,5.20
2024-03-06T23:26:05.928Z,5.50
2024-03-06T23:28:04.967Z,5.20
2024-03-06T23:29:56.281Z,5.40
2024-03-06T23:31:46.650Z,5.40
2024-03-06T23:33:38.608Z,5.20
2024-03-06T23:35:24.979Z,5.30
2024-03-06T23:37:11.797Z,5.30
2024-03-06T23:39:01.017Z,5.40
2024-03-06T23:40:47.687Z,5.40
2024-03-06T23:42:38.676Z,5.40
2024-03-06T23:44:35.169Z,5.10
2024-03-06T23:46:29.744Z,5.40
2024-03-06T23:48:28.991Z,5.00
2024-03-06T23:50:24.666Z,5.60
2024-03-06T23:52:17.223Z,5.20
2024-03-06T23:54:42.224Z,5.30
2024-03-06T23:56:36.355Z,5.00
2024-03-06T23:58:31.910Z,5.30
